sensor_id;sensor_type;location;lat;lon;timestamp;temperature;humidity
12386;DHT22;6257;57.634;18.310;2023-01-29T00:00:33;2.80;99.90
12386;DHT22;6257;57.634;18.310;2023-01-29T00:03:00;2.90;99.90
12386;DHT22;6257;57.634;18.310;2023-01-29T00:05:27;2.90;99.90
12386;DHT22;6257;57.634;18.310;2023-01-29T00:07:54;2.90;99.90
12386;DHT22;6257;57.634;18.310;2023-01-29T00:10:22;2.90;99.90
12386;DHT22;6257;57.634;18.310;2023-01-29T00:12:49;2.90;99.90
12386;DHT22;6257;57.634;18.310;2023-01-29T00:15:17;2.90;99.90
12386;DHT22;6257;57.634;18.310;2023-01-29T00:17:46;2.90;99.90
12386;DHT22;6257;57.634;18.310;2023-01-29T00:20:13;2.90;99.90
12386;DHT22;6257;57.634;18.310;2023-01-29T00:22:41;2.90;99.90
12386;DHT22;6257;57.634;18.310;2023-01-29T00:25:08;2.90;99.90
12386;DHT22;6257;57.634;18.310;2023-01-29T00:27:36;2.90;99.90
12386;DHT22;6257;57.634;18.310;2023-01-29T00:30:03;2.90;99.90
12386;DHT22;6257;57.634;18.310;2023-01-29T00:32:40;2.90;99.90
12386;DHT22;6257;57.634;18.310;2023-01-29T00:35:09;2.90;99.90
12386;DHT22;6257;57.634;18.310;2023-01-29T00:37:37;2.90;99.90
12386;DHT22;6257;57.634;18.310;2023-01-29T00:40:05;2.90;99.90
12386;DHT22;6257;57.634;18.310;2023-01-29T00:42:32;2.90;99.90
12386;DHT22;6257;57.634;18.310;2023-01-29T00:45:16;2.90;99.90
12386;DHT22;6257;57.634;18.310;2023-01-29T00:47:43;2.80;99.90
12386;DHT22;6257;57.634;18.310;2023-01-29T00:50:12;2.90;99.90
12386;DHT22;6257;57.634;18.310;2023-01-29T00:52:39;2.90;99.90
12386;DHT22;6257;57.634;18.310;2023-01-29T00:55:07;2.90;99.90
12386;DHT22;6257;57.634;18.310;2023-01-29T00:57:35;2.90;99.90
12386;DHT22;6257;57.634;18.310;2023-01-29T01:00:03;2.90;99.90
12386;DHT22;6257;57.634;18.310;2023-01-29T01:02:31;2.90;99.90
12386;DHT22;6257;57.634;18.310;2023-01-29T01:05:17;2.90;99.90
12386;DHT22;6257;57.634;18.310;2023-01-29T01:07:45;2.80;99.90
12386;DHT22;6257;57.634;18.310;2023-01-29T01:10:14;2.80;99.90
12386;DHT22;6257;57.634;18.310;2023-01-29T01:12:48;2.80;99.90
12386;DHT22;6257;57.634;18.310;2023-01-29T01:15:17;2.80;99.90
12386;DHT22;6257;57.634;18.310;2023-01-29T01:17:44;2.70;99.90
12386;DHT22;6257;57.634;18.310;2023-01-29T01:20:11;2.70;99.90
12386;DHT22;6257;57.634;18.310;2023-01-29T01:22:40;2.70;99.90
12386;DHT22;6257;57.634;18.310;2023-01-29T01:25:08;2.70;99.90
12386;DHT22;6257;57.634;18.310;2023-01-29T01:27:35;2.70;99.90
12386;DHT22;6257;57.634;18.310;2023-01-29T01:30:08;2.70;99.90
12386;DHT22;6257;57.634;18.310;2023-01-29T01:32:35;2.60;99.90
12386;DHT22;6257;57.634;18.310;2023-01-29T01:35:02;2.60;99.90
12386;DHT22;6257;57.634;18.310;2023-01-29T01:37:29;2.60;99.90
12386;DHT22;6257;57.634;18.310;2023-01-29T01:39:58;2.60;99.90
12386;DHT22;6257;57.634;18.310;2023-01-29T01:42:27;2.60;99.90
12386;DHT22;6257;57.634;18.310;2023-01-29T01:44:58;2.60;99.90
12386;DHT22;6257;57.634;18.310;2023-01-29T01:47:32;2.60;99.90
12386;DHT22;6257;57.634;18.310;2023-01-29T01:50:04;2.60;99.90
12386;DHT22;6257;57.634;18.310;2023-01-29T01:52:36;2.50;99.90
12386;DHT22;6257;57.634;18.310;2023-01-29T01:55:06;2.50;99.90
12386;DHT22;6257;57.634;18.310;2023-01-29T01:57:35;2.50;99.90
12386;DHT22;6257;57.634;18.310;2023-01-29T02:00:05;2.50;99.90
12386;DHT22;6257;57.634;18.310;2023-01-29T02:02:37;2.50;99.90
12386;DHT22;6257;57.634;18.310;2023-01-29T02:05:23;2.50;99.90
12386;DHT22;6257;57.634;18.310;2023-01-29T02:08:08;2.50;99.90
12386;DHT22;6257;57.634;18.310;2023-01-29T02:10:54;2.50;99.90
12386;DHT22;6257;57.634;18.310;2023-01-29T02:13:22;2.60;99.90
12386;DHT22;6257;57.634;18.310;2023-01-29T02:15:49;2.60;99.90
12386;DHT22;6257;57.634;18.310;2023-01-29T02:18:18;2.60;99.90
12386;DHT22;6257;57.634;18.310;2023-01-29T02:20:52;2.60;99.90
12386;DHT22;6257;57.634;18.310;2023-01-29T02:23:52;2.60;99.90
12386;DHT22;6257;57.634;18.310;2023-01-29T02:26:37;2.60;99.90
12386;DHT22;6257;57.634;18.310;2023-01-29T02:29:09;2.60;99.90
12386;DHT22;6257;57.634;18.310;2023-01-29T02:32:02;2.60;99.90
12386;DHT22;6257;57.634;18.310;2023-01-29T02:34:40;2.60;99.90
12386;DHT22;6257;57.634;18.310;2023-01-29T02:37:31;2.60;99.90
12386;DHT22;6257;57.634;18.310;2023-01-29T02:40:07;2.60;99.90
12386;DHT22;6257;57.634;18.310;2023-01-29T02:42:41;2.60;99.90
12386;DHT22;6257;57.634;18.310;2023-01-29T02:45:14;2.60;99.90
12386;DHT22;6257;57.634;18.310;2023-01-29T02:47:47;2.60;99.90
12386;DHT22;6257;57.634;18.310;2023-01-29T02:50:19;2.60;99.90
12386;DHT22;6257;57.634;18.310;2023-01-29T02:52:57;2.60;99.90
12386;DHT22;6257;57.634;18.310;2023-01-29T02:55:31;2.60;99.90
12386;DHT22;6257;57.634;18.310;2023-01-29T02:58:06;2.60;99.90
12386;DHT22;6257;57.634;18.310;2023-01-29T03:00:38;2.60;99.90
12386;DHT22;6257;57.634;18.310;2023-01-29T03:03:11;2.60;99.90
12386;DHT22;6257;57.634;18.310;2023-01-29T03:05:44;2.50;99.90
12386;DHT22;6257;57.634;18.310;2023-01-29T03:08:19;2.50;99.90
12386;DHT22;6257;57.634;18.310;2023-01-29T03:10:49;2.50;99.90
12386;DHT22;6257;57.634;18.310;2023-01-29T03:13:20;2.60;99.90
12386;DHT22;6257;57.634;18.310;2023-01-29T03:15:59;2.50;99.90
12386;DHT22;6257;57.634;18.310;2023-01-29T03:18:31;2.50;99.90
12386;DHT22;6257;57.634;18.310;2023-01-29T03:21:05;2.50;99.90
12386;DHT22;6257;57.634;18.310;2023-01-29T03:23:56;2.50;99.90
12386;DHT22;6257;57.634;18.310;2023-01-29T03:26:42;2.50;99.90
12386;DHT22;6257;57.634;18.310;2023-01-29T03:29:29;2.50;99.90
12386;DHT22;6257;57.634;18.310;2023-01-29T03:32:17;2.50;99.90
12386;DHT22;6257;57.634;18.310;2023-01-29T03:34:47;2.50;99.90
12386;DHT22;6257;57.634;18.310;2023-01-29T03:37:19;2.50;99.90
12386;DHT22;6257;57.634;18.310;2023-01-29T03:39:47;2.50;99.90
12386;DHT22;6257;57.634;18.310;2023-01-29T03:42:19;2.50;99.90
12386;DHT22;6257;57.634;18.310;2023-01-29T03:44:55;2.50;99.90
12386;DHT22;6257;57.634;18.310;2023-01-29T03:47:31;2.40;99.90
12386;DHT22;6257;57.634;18.310;2023-01-29T03:50:08;2.50;99.90
12386;DHT22;6257;57.634;18.310;2023-01-29T03:52:41;2.50;99.90
12386;DHT22;6257;57.634;18.310;2023-01-29T03:55:15;2.50;99.90
12386;DHT22;6257;57.634;18.310;2023-01-29T03:57:49;2.50;99.90
12386;DHT22;6257;57.634;18.310;2023-01-29T04:00:21;2.50;99.90
12386;DHT22;6257;57.634;18.310;2023-01-29T04:02:56;2.40;99.90
12386;DHT22;6257;57.634;18.310;2023-01-29T04:05:30;2.40;99.90
12386;DHT22;6257;57.634;18.310;2023-01-29T04:08:01;2.50;99.90
12386;DHT22;6257;57.634;18.310;2023-01-29T04:10:31;2.50;99.90
12386;DHT22;6257;57.634;18.310;2023-01-29T04:13:04;2.50;99.90
12386;DHT22;6257;57.634;18.310;2023-01-29T04:15:36;2.60;99.90
12386;DHT22;6257;57.634;18.310;2023-01-29T04:18:07;2.60;99.90
12386;DHT22;6257;57.634;18.310;2023-01-29T04:20:35;2.60;99.90
12386;DHT22;6257;57.634;18.310;2023-01-29T04:23:05;2.70;99.90
12386;DHT22;6257;57.634;18.310;2023-01-29T04:25:43;2.70;99.90
12386;DHT22;6257;57.634;18.310;2023-01-29T04:28:18;2.70;99.90
12386;DHT22;6257;57.634;18.310;2023-01-29T04:30:53;2.70;99.90
12386;DHT22;6257;57.634;18.310;2023-01-29T04:33:28;2.70;99.90
12386;DHT22;6257;57.634;18.310;2023-01-29T04:36:15;2.70;99.90
12386;DHT22;6257;57.634;18.310;2023-01-29T04:38:53;2.70;99.90
12386;DHT22;6257;57.634;18.310;2023-01-29T04:41:28;2.70;99.90
12386;DHT22;6257;57.634;18.310;2023-01-29T04:44:01;2.70;99.90
12386;DHT22;6257;57.634;18.310;2023-01-29T04:46:37;2.70;99.90
12386;DHT22;6257;57.634;18.310;2023-01-29T04:49:16;2.70;99.90
12386;DHT22;6257;57.634;18.310;2023-01-29T04:51:50;2.70;99.90
12386;DHT22;6257;57.634;18.310;2023-01-29T04:54:30;2.70;99.90
12386;DHT22;6257;57.634;18.310;2023-01-29T04:57:08;2.70;99.90
12386;DHT22;6257;57.634;18.310;2023-01-29T04:59:41;2.70;99.90
12386;DHT22;6257;57.634;18.310;2023-01-29T05:02:09;2.70;99.90
12386;DHT22;6257;57.634;18.310;2023-01-29T05:04:40;2.70;99.90
12386;DHT22;6257;57.634;18.310;2023-01-29T05:07:10;2.70;99.90
12386;DHT22;6257;57.634;18.310;2023-01-29T05:09:39;2.70;99.90
12386;DHT22;6257;57.634;18.310;2023-01-29T05:12:10;2.70;99.90
12386;DHT22;6257;57.634;18.310;2023-01-29T05:14:39;2.70;99.90
12386;DHT22;6257;57.634;18.310;2023-01-29T05:17:12;2.70;99.90
12386;DHT22;6257;57.634;18.310;2023-01-29T05:19:41;2.70;99.90
12386;DHT22;6257;57.634;18.310;2023-01-29T05:22:10;2.70;99.90
12386;DHT22;6257;57.634;18.310;2023-01-29T05:24:38;2.60;99.90
12386;DHT22;6257;57.634;18.310;2023-01-29T05:27:05;2.70;99.90
12386;DHT22;6257;57.634;18.310;2023-01-29T05:29:50;2.60;99.90
12386;DHT22;6257;57.634;18.310;2023-01-29T05:32:17;2.60;99.90
12386;DHT22;6257;57.634;18.310;2023-01-29T05:34:46;2.60;99.90
12386;DHT22;6257;57.634;18.310;2023-01-29T05:37:13;2.60;99.90
12386;DHT22;6257;57.634;18.310;2023-01-29T05:39:40;2.60;99.90
12386;DHT22;6257;57.634;18.310;2023-01-29T05:42:07;2.60;99.90
12386;DHT22;6257;57.634;18.310;2023-01-29T05:44:34;2.60;99.90
12386;DHT22;6257;57.634;18.310;2023-01-29T05:47:01;2.60;99.90
12386;DHT22;6257;57.634;18.310;2023-01-29T05:49:28;2.60;99.90
12386;DHT22;6257;57.634;18.310;2023-01-29T05:51:56;2.60;99.90
12386;DHT22;6257;57.634;18.310;2023-01-29T05:54:23;2.60;99.90
12386;DHT22;6257;57.634;18.310;2023-01-29T05:56:50;2.60;99.90
12386;DHT22;6257;57.634;18.310;2023-01-29T05:59:17;2.70;99.90
12386;DHT22;6257;57.634;18.310;2023-01-29T06:01:44;2.70;99.90
12386;DHT22;6257;57.634;18.310;2023-01-29T06:04:11;2.70;99.90
12386;DHT22;6257;57.634;18.310;2023-01-29T06:06:38;2.70;99.90
12386;DHT22;6257;57.634;18.310;2023-01-29T06:09:09;2.70;99.90
12386;DHT22;6257;57.634;18.310;2023-01-29T06:11:36;2.70;99.90
12386;DHT22;6257;57.634;18.310;2023-01-29T06:14:03;2.70;99.90
12386;DHT22;6257;57.634;18.310;2023-01-29T06:16:30;2.70;99.90
12386;DHT22;6257;57.634;18.310;2023-01-29T06:18:57;2.70;99.90
12386;DHT22;6257;57.634;18.310;2023-01-29T06:21:24;2.70;99.90
12386;DHT22;6257;57.634;18.310;2023-01-29T06:23:51;2.70;99.90
12386;DHT22;6257;57.634;18.310;2023-01-29T06:26:20;2.70;99.90
12386;DHT22;6257;57.634;18.310;2023-01-29T06:28:48;2.60;99.90
12386;DHT22;6257;57.634;18.310;2023-01-29T06:31:15;2.60;99.90
12386;DHT22;6257;57.634;18.310;2023-01-29T06:33:43;2.60;99.90
12386;DHT22;6257;57.634;18.310;2023-01-29T06:36:10;2.60;99.90
12386;DHT22;6257;57.634;18.310;2023-01-29T06:38:37;2.50;99.90
12386;DHT22;6257;57.634;18.310;2023-01-29T06:41:08;2.60;99.90
12386;DHT22;6257;57.634;18.310;2023-01-29T06:43:37;2.50;99.90
12386;DHT22;6257;57.634;18.310;2023-01-29T06:46:06;2.50;99.90
12386;DHT22;6257;57.634;18.310;2023-01-29T06:48:34;2.40;99.90
12386;DHT22;6257;57.634;18.310;2023-01-29T06:51:02;2.40;99.90
12386;DHT22;6257;57.634;18.310;2023-01-29T06:53:29;2.40;99.90
12386;DHT22;6257;57.634;18.310;2023-01-29T06:55:56;2.40;99.90
12386;DHT22;6257;57.634;18.310;2023-01-29T06:58:24;2.40;99.90
12386;DHT22;6257;57.634;18.310;2023-01-29T07:00:52;2.40;99.90
12386;DHT22;6257;57.634;18.310;2023-01-29T07:03:19;2.40;99.90
12386;DHT22;6257;57.634;18.310;2023-01-29T07:05:50;2.40;99.90
12386;DHT22;6257;57.634;18.310;2023-01-29T07:08:17;2.40;99.90
12386;DHT22;6257;57.634;18.310;2023-01-29T07:10:47;2.30;99.90
12386;DHT22;6257;57.634;18.310;2023-01-29T07:13:14;2.30;99.90
12386;DHT22;6257;57.634;18.310;2023-01-29T07:15:41;2.30;99.90
12386;DHT22;6257;57.634;18.310;2023-01-29T07:18:10;2.30;99.90
12386;DHT22;6257;57.634;18.310;2023-01-29T07:20:38;2.30;99.90
12386;DHT22;6257;57.634;18.310;2023-01-29T07:23:06;2.30;99.90
12386;DHT22;6257;57.634;18.310;2023-01-29T07:25:34;2.40;99.90
12386;DHT22;6257;57.634;18.310;2023-01-29T07:28:02;2.40;99.90
12386;DHT22;6257;57.634;18.310;2023-01-29T07:30:29;2.40;99.90
12386;DHT22;6257;57.634;18.310;2023-01-29T07:33:00;2.40;99.90
12386;DHT22;6257;57.634;18.310;2023-01-29T07:35:30;2.50;99.90
12386;DHT22;6257;57.634;18.310;2023-01-29T07:37:57;2.50;99.90
12386;DHT22;6257;57.634;18.310;2023-01-29T07:40:24;2.50;99.90
12386;DHT22;6257;57.634;18.310;2023-01-29T07:42:56;2.40;99.90
12386;DHT22;6257;57.634;18.310;2023-01-29T07:45:23;2.40;99.90
12386;DHT22;6257;57.634;18.310;2023-01-29T07:47:51;2.40;99.90
12386;DHT22;6257;57.634;18.310;2023-01-29T07:50:19;2.50;99.90
12386;DHT22;6257;57.634;18.310;2023-01-29T07:52:49;2.50;99.90
12386;DHT22;6257;57.634;18.310;2023-01-29T07:55:16;2.50;99.90
12386;DHT22;6257;57.634;18.310;2023-01-29T07:57:43;2.50;99.90
12386;DHT22;6257;57.634;18.310;2023-01-29T08:00:11;2.50;99.90
12386;DHT22;6257;57.634;18.310;2023-01-29T08:02:39;2.50;99.90
12386;DHT22;6257;57.634;18.310;2023-01-29T08:05:07;2.50;99.90
12386;DHT22;6257;57.634;18.310;2023-01-29T08:07:34;2.60;99.90
12386;DHT22;6257;57.634;18.310;2023-01-29T08:10:03;2.60;99.90
12386;DHT22;6257;57.634;18.310;2023-01-29T08:12:30;2.60;99.90
12386;DHT22;6257;57.634;18.310;2023-01-29T08:14:57;2.60;99.90
12386;DHT22;6257;57.634;18.310;2023-01-29T08:17:24;2.70;99.90
12386;DHT22;6257;57.634;18.310;2023-01-29T08:19:51;2.70;99.90
12386;DHT22;6257;57.634;18.310;2023-01-29T08:22:18;2.70;99.90
12386;DHT22;6257;57.634;18.310;2023-01-29T08:24:45;2.70;99.90
12386;DHT22;6257;57.634;18.310;2023-01-29T08:27:13;2.80;99.90
12386;DHT22;6257;57.634;18.310;2023-01-29T08:29:40;2.80;99.90
12386;DHT22;6257;57.634;18.310;2023-01-29T08:32:08;2.80;99.90
12386;DHT22;6257;57.634;18.310;2023-01-29T08:34:36;2.80;99.90
12386;DHT22;6257;57.634;18.310;2023-01-29T08:37:03;2.80;99.90
12386;DHT22;6257;57.634;18.310;2023-01-29T08:39:30;2.80;99.90
12386;DHT22;6257;57.634;18.310;2023-01-29T08:41:57;2.80;99.90
12386;DHT22;6257;57.634;18.310;2023-01-29T08:44:25;2.90;99.90
12386;DHT22;6257;57.634;18.310;2023-01-29T08:46:53;3.00;99.90
12386;DHT22;6257;57.634;18.310;2023-01-29T08:49:20;3.00;99.90
12386;DHT22;6257;57.634;18.310;2023-01-29T08:51:47;4.10;99.90
12386;DHT22;6257;57.634;18.310;2023-01-29T08:54:16;3.10;99.90
12386;DHT22;6257;57.634;18.310;2023-01-29T08:56:43;3.20;99.90
12386;DHT22;6257;57.634;18.310;2023-01-29T08:59:10;3.20;99.90
12386;DHT22;6257;57.634;18.310;2023-01-29T09:01:39;3.20;99.90
12386;DHT22;6257;57.634;18.310;2023-01-29T09:04:06;3.20;99.90
12386;DHT22;6257;57.634;18.310;2023-01-29T09:06:33;3.20;99.90
12386;DHT22;6257;57.634;18.310;2023-01-29T09:09:00;3.30;99.90
12386;DHT22;6257;57.634;18.310;2023-01-29T09:11:27;3.30;99.90
12386;DHT22;6257;57.634;18.310;2023-01-29T09:13:55;3.30;99.90
12386;DHT22;6257;57.634;18.310;2023-01-29T09:16:22;3.30;99.90
12386;DHT22;6257;57.634;18.310;2023-01-29T09:18:52;3.30;99.90
12386;DHT22;6257;57.634;18.310;2023-01-29T09:21:19;3.30;99.90
12386;DHT22;6257;57.634;18.310;2023-01-29T09:23:46;3.30;99.90
12386;DHT22;6257;57.634;18.310;2023-01-29T09:26:13;3.30;99.90
12386;DHT22;6257;57.634;18.310;2023-01-29T09:28:40;3.30;99.90
12386;DHT22;6257;57.634;18.310;2023-01-29T09:31:07;3.30;99.90
12386;DHT22;6257;57.634;18.310;2023-01-29T09:33:34;3.20;99.90
12386;DHT22;6257;57.634;18.310;2023-01-29T09:36:03;3.30;99.90
12386;DHT22;6257;57.634;18.310;2023-01-29T09:38:30;3.30;99.90
12386;DHT22;6257;57.634;18.310;2023-01-29T09:41:05;3.30;99.90
12386;DHT22;6257;57.634;18.310;2023-01-29T09:43:42;3.40;99.90
12386;DHT22;6257;57.634;18.310;2023-01-29T09:46:17;3.40;99.90
12386;DHT22;6257;57.634;18.310;2023-01-29T09:48:45;3.50;99.90
12386;DHT22;6257;57.634;18.310;2023-01-29T09:51:26;3.50;99.90
12386;DHT22;6257;57.634;18.310;2023-01-29T09:53:59;3.60;99.90
12386;DHT22;6257;57.634;18.310;2023-01-29T09:56:29;3.60;99.90
12386;DHT22;6257;57.634;18.310;2023-01-29T09:58:57;3.70;99.90
12386;DHT22;6257;57.634;18.310;2023-01-29T10:01:32;3.70;99.90
12386;DHT22;6257;57.634;18.310;2023-01-29T10:04:34;3.80;99.90
12386;DHT22;6257;57.634;18.310;2023-01-29T10:07:21;3.80;99.90
12386;DHT22;6257;57.634;18.310;2023-01-29T10:13:02;4.00;99.90
12386;DHT22;6257;57.634;18.310;2023-01-29T10:15:41;4.10;99.90
12386;DHT22;6257;57.634;18.310;2023-01-29T10:18:35;4.10;99.90
12386;DHT22;6257;57.634;18.310;2023-01-29T10:21:14;4.20;99.90
12386;DHT22;6257;57.634;18.310;2023-01-29T10:23:48;4.30;99.90
12386;DHT22;6257;57.634;18.310;2023-01-29T10:26:22;4.30;99.90
12386;DHT22;6257;57.634;18.310;2023-01-29T10:28:51;4.40;99.90
12386;DHT22;6257;57.634;18.310;2023-01-29T10:31:24;4.40;99.90
12386;DHT22;6257;57.634;18.310;2023-01-29T10:33:54;4.40;99.90
12386;DHT22;6257;57.634;18.310;2023-01-29T10:36:25;4.40;99.90
12386;DHT22;6257;57.634;18.310;2023-01-29T10:38:54;4.40;99.90
12386;DHT22;6257;57.634;18.310;2023-01-29T10:41:31;4.50;99.90
12386;DHT22;6257;57.634;18.310;2023-01-29T10:44:11;4.50;99.90
12386;DHT22;6257;57.634;18.310;2023-01-29T10:46:52;4.60;99.90
12386;DHT22;6257;57.634;18.310;2023-01-29T10:49:40;4.60;99.90
12386;DHT22;6257;57.634;18.310;2023-01-29T10:55:02;4.60;99.90
12386;DHT22;6257;57.634;18.310;2023-01-29T10:57:43;4.60;99.90
12386;DHT22;6257;57.634;18.310;2023-01-29T11:00:20;4.60;99.90
12386;DHT22;6257;57.634;18.310;2023-01-29T11:02:48;4.50;99.90
12386;DHT22;6257;57.634;18.310;2023-01-29T11:05:19;4.50;99.90
12386;DHT22;6257;57.634;18.310;2023-01-29T11:07:57;4.50;99.90
12386;DHT22;6257;57.634;18.310;2023-01-29T11:10:29;4.50;99.90
12386;DHT22;6257;57.634;18.310;2023-01-29T11:12:58;4.40;99.90
12386;DHT22;6257;57.634;18.310;2023-01-29T11:15:28;4.40;99.90
12386;DHT22;6257;57.634;18.310;2023-01-29T11:18:08;4.30;99.90
12386;DHT22;6257;57.634;18.310;2023-01-29T11:20:39;4.30;99.90
12386;DHT22;6257;57.634;18.310;2023-01-29T11:23:24;4.30;99.90
12386;DHT22;6257;57.634;18.310;2023-01-29T11:25:55;4.30;99.90
12386;DHT22;6257;57.634;18.310;2023-01-29T11:28:36;4.30;99.90
12386;DHT22;6257;57.634;18.310;2023-01-29T11:31:14;4.30;99.90
12386;DHT22;6257;57.634;18.310;2023-01-29T11:33:42;4.30;99.90
12386;DHT22;6257;57.634;18.310;2023-01-29T11:36:30;4.30;99.90
12386;DHT22;6257;57.634;18.310;2023-01-29T11:39:20;4.30;99.90
12386;DHT22;6257;57.634;18.310;2023-01-29T11:41:52;4.30;99.90
12386;DHT22;6257;57.634;18.310;2023-01-29T11:44:30;4.20;99.90
12386;DHT22;6257;57.634;18.310;2023-01-29T11:47:11;4.30;99.90
12386;DHT22;6257;57.634;18.310;2023-01-29T11:49:40;4.30;99.90
12386;DHT22;6257;57.634;18.310;2023-01-29T11:52:11;4.30;99.90
12386;DHT22;6257;57.634;18.310;2023-01-29T11:54:44;4.30;99.90
12386;DHT22;6257;57.634;18.310;2023-01-29T11:57:26;4.20;99.90
12386;DHT22;6257;57.634;18.310;2023-01-29T11:59:56;4.20;99.90
12386;DHT22;6257;57.634;18.310;2023-01-29T12:02:34;4.20;99.90
12386;DHT22;6257;57.634;18.310;2023-01-29T12:05:05;4.20;99.90
12386;DHT22;6257;57.634;18.310;2023-01-29T12:07:33;4.20;99.90
12386;DHT22;6257;57.634;18.310;2023-01-29T12:10:00;4.30;99.90
12386;DHT22;6257;57.634;18.310;2023-01-29T12:12:36;4.20;99.90
12386;DHT22;6257;57.634;18.310;2023-01-29T12:15:15;4.20;99.90
12386;DHT22;6257;57.634;18.310;2023-01-29T12:17:49;4.20;99.90
12386;DHT22;6257;57.634;18.310;2023-01-29T12:20:22;4.30;99.90
12386;DHT22;6257;57.634;18.310;2023-01-29T12:22:58;4.20;99.90
12386;DHT22;6257;57.634;18.310;2023-01-29T12:25:35;4.20;99.90
12386;DHT22;6257;57.634;18.310;2023-01-29T12:28:18;4.30;99.90
12386;DHT22;6257;57.634;18.310;2023-01-29T12:30:57;4.30;99.90
12386;DHT22;6257;57.634;18.310;2023-01-29T12:33:35;4.30;99.90
12386;DHT22;6257;57.634;18.310;2023-01-29T12:36:10;4.30;99.90
12386;DHT22;6257;57.634;18.310;2023-01-29T12:38:40;4.30;99.90
12386;DHT22;6257;57.634;18.310;2023-01-29T12:44:04;4.40;99.90
12386;DHT22;6257;57.634;18.310;2023-01-29T12:46:37;4.40;99.90
12386;DHT22;6257;57.634;18.310;2023-01-29T12:49:12;4.40;99.90
12386;DHT22;6257;57.634;18.310;2023-01-29T12:51:48;4.40;99.90
12386;DHT22;6257;57.634;18.310;2023-01-29T12:54:22;4.40;99.90
12386;DHT22;6257;57.634;18.310;2023-01-29T12:56:57;4.40;99.90
12386;DHT22;6257;57.634;18.310;2023-01-29T12:59:30;4.40;99.90
12386;DHT22;6257;57.634;18.310;2023-01-29T13:02:03;4.40;99.90
12386;DHT22;6257;57.634;18.310;2023-01-29T13:04:35;4.40;99.90
12386;DHT22;6257;57.634;18.310;2023-01-29T13:07:10;4.40;99.90
12386;DHT22;6257;57.634;18.310;2023-01-29T13:09:42;4.50;99.90
12386;DHT22;6257;57.634;18.310;2023-01-29T13:12:14;4.50;99.90
12386;DHT22;6257;57.634;18.310;2023-01-29T13:14:47;4.50;99.90
12386;DHT22;6257;57.634;18.310;2023-01-29T13:17:19;4.50;99.90
12386;DHT22;6257;57.634;18.310;2023-01-29T13:19:50;4.50;99.90
12386;DHT22;6257;57.634;18.310;2023-01-29T13:22:22;4.20;99.90
12386;DHT22;6257;57.634;18.310;2023-01-29T13:24:50;4.50;99.90
12386;DHT22;6257;57.634;18.310;2023-01-29T13:27:23;4.50;99.90
12386;DHT22;6257;57.634;18.310;2023-01-29T13:29:52;4.50;99.90
12386;DHT22;6257;57.634;18.310;2023-01-29T13:32:25;4.50;99.90
12386;DHT22;6257;57.634;18.310;2023-01-29T13:34:55;4.40;99.90
12386;DHT22;6257;57.634;18.310;2023-01-29T13:37:28;4.50;99.90
12386;DHT22;6257;57.634;18.310;2023-01-29T13:39:57;4.50;99.90
12386;DHT22;6257;57.634;18.310;2023-01-29T13:42:36;4.50;99.90
12386;DHT22;6257;57.634;18.310;2023-01-29T13:45:08;4.50;99.90
12386;DHT22;6257;57.634;18.310;2023-01-29T13:47:42;4.50;99.90
12386;DHT22;6257;57.634;18.310;2023-01-29T13:50:18;4.50;99.90
12386;DHT22;6257;57.634;18.310;2023-01-29T13:52:52;4.50;99.90
12386;DHT22;6257;57.634;18.310;2023-01-29T13:55:23;4.50;99.90
12386;DHT22;6257;57.634;18.310;2023-01-29T13:57:56;4.50;99.90
12386;DHT22;6257;57.634;18.310;2023-01-29T14:00:48;4.50;99.90
12386;DHT22;6257;57.634;18.310;2023-01-29T14:03:43;4.60;99.90
12386;DHT22;6257;57.634;18.310;2023-01-29T14:06:10;4.60;99.90
12386;DHT22;6257;57.634;18.310;2023-01-29T14:08:40;4.70;99.90
12386;DHT22;6257;57.634;18.310;2023-01-29T14:11:33;4.70;99.90
12386;DHT22;6257;57.634;18.310;2023-01-29T14:14:01;4.70;99.90
12386;DHT22;6257;57.634;18.310;2023-01-29T14:16:36;4.70;99.90
12386;DHT22;6257;57.634;18.310;2023-01-29T14:19:04;4.80;99.90
12386;DHT22;6257;57.634;18.310;2023-01-29T14:21:33;4.80;99.90
12386;DHT22;6257;57.634;18.310;2023-01-29T14:24:10;4.80;99.90
12386;DHT22;6257;57.634;18.310;2023-01-29T14:26:42;4.80;99.90
12386;DHT22;6257;57.634;18.310;2023-01-29T14:29:21;4.90;99.90
12386;DHT22;6257;57.634;18.310;2023-01-29T14:31:53;4.90;99.90
12386;DHT22;6257;57.634;18.310;2023-01-29T14:34:24;4.90;99.90
12386;DHT22;6257;57.634;18.310;2023-01-29T14:36:54;4.90;99.90
12386;DHT22;6257;57.634;18.310;2023-01-29T14:39:28;4.90;99.90
12386;DHT22;6257;57.634;18.310;2023-01-29T14:41:57;4.90;99.90
12386;DHT22;6257;57.634;18.310;2023-01-29T14:44:47;4.90;99.90
12386;DHT22;6257;57.634;18.310;2023-01-29T14:47:51;4.90;99.90
12386;DHT22;6257;57.634;18.310;2023-01-29T14:50:44;4.90;99.90
12386;DHT22;6257;57.634;18.310;2023-01-29T14:53:16;4.80;99.90
12386;DHT22;6257;57.634;18.310;2023-01-29T14:55:48;4.80;99.90
12386;DHT22;6257;57.634;18.310;2023-01-29T14:58:27;4.80;99.90
12386;DHT22;6257;57.634;18.310;2023-01-29T15:00:56;4.80;99.90
12386;DHT22;6257;57.634;18.310;2023-01-29T15:03:34;4.80;99.90
12386;DHT22;6257;57.634;18.310;2023-01-29T15:06:04;4.70;99.90
12386;DHT22;6257;57.634;18.310;2023-01-29T15:08:37;4.70;99.90
12386;DHT22;6257;57.634;18.310;2023-01-29T15:11:10;4.70;99.90
12386;DHT22;6257;57.634;18.310;2023-01-29T15:14:02;4.60;99.90
12386;DHT22;6257;57.634;18.310;2023-01-29T15:16:45;4.60;99.90
12386;DHT22;6257;57.634;18.310;2023-01-29T15:19:20;4.50;99.90
12386;DHT22;6257;57.634;18.310;2023-01-29T15:22:08;4.50;99.90
12386;DHT22;6257;57.634;18.310;2023-01-29T15:24:36;4.50;99.90
12386;DHT22;6257;57.634;18.310;2023-01-29T15:27:06;4.50;99.90
12386;DHT22;6257;57.634;18.310;2023-01-29T15:29:37;4.50;99.90
12386;DHT22;6257;57.634;18.310;2023-01-29T15:32:05;4.60;99.90
12386;DHT22;6257;57.634;18.310;2023-01-29T15:34:34;4.60;99.90
12386;DHT22;6257;57.634;18.310;2023-01-29T15:37:01;4.60;99.90
12386;DHT22;6257;57.634;18.310;2023-01-29T15:39:29;4.60;99.90
12386;DHT22;6257;57.634;18.310;2023-01-29T15:42:12;4.60;99.90
12386;DHT22;6257;57.634;18.310;2023-01-29T15:44:44;4.60;99.90
12386;DHT22;6257;57.634;18.310;2023-01-29T15:47:12;4.60;99.90
12386;DHT22;6257;57.634;18.310;2023-01-29T15:49:41;4.60;99.90
12386;DHT22;6257;57.634;18.310;2023-01-29T15:52:16;4.60;99.90
12386;DHT22;6257;57.634;18.310;2023-01-29T15:54:45;4.50;99.90
12386;DHT22;6257;57.634;18.310;2023-01-29T15:57:18;4.50;99.90
12386;DHT22;6257;57.634;18.310;2023-01-29T15:59:47;4.50;99.90
12386;DHT22;6257;57.634;18.310;2023-01-29T16:02:43;4.50;99.90
12386;DHT22;6257;57.634;18.310;2023-01-29T16:05:13;4.50;99.90
12386;DHT22;6257;57.634;18.310;2023-01-29T16:07:42;4.50;99.90
12386;DHT22;6257;57.634;18.310;2023-01-29T16:10:15;4.50;99.90
12386;DHT22;6257;57.634;18.310;2023-01-29T16:12:43;4.50;99.90
12386;DHT22;6257;57.634;18.310;2023-01-29T16:15:22;4.50;99.90
12386;DHT22;6257;57.634;18.310;2023-01-29T16:17:49;4.60;99.90
12386;DHT22;6257;57.634;18.310;2023-01-29T16:20:32;4.60;99.90
12386;DHT22;6257;57.634;18.310;2023-01-29T16:23:01;4.60;99.90
12386;DHT22;6257;57.634;18.310;2023-01-29T16:25:29;4.60;99.90